createdAt,value
2023-03-06T00:00:11.007Z,535.53
2023-03-06T00:01:11.013Z,534.88
2023-03-06T00:02:11.028Z,534.92
2023-03-06T00:03:11.012Z,534.9
2023-03-06T00:04:11.016Z,534.69
2023-03-06T00:05:11.016Z,534.67
2023-03-06T00:06:11.077Z,534.78
2023-03-06T00:07:11.060Z,534.39
2023-03-06T00:08:11.023Z,533.61
2023-03-06T00:09:11.025Z,533.45
2023-03-06T00:10:11.021Z,532.89
2023-03-06T00:11:11.098Z,532.51
2023-03-06T00:12:14.620Z,532.21
2023-03-06T00:13:11.022Z,531.54
2023-03-06T00:14:11.034Z,531.25
2023-03-06T00:15:11.040Z,530.84
2023-03-06T00:16:11.067Z,530.51
2023-03-06T00:17:11.038Z,529.84
2023-03-06T00:18:11.041Z,529.32
2023-03-06T00:19:11.041Z,529.09
2023-03-06T00:20:11.056Z,529.3
2023-03-06T00:21:11.037Z,529.32
2023-03-06T00:22:11.062Z,528.3
2023-03-06T00:23:11.051Z,528.25
2023-03-06T00:24:11.047Z,527.5
2023-03-06T00:25:11.049Z,527.06
2023-03-06T00:26:11.049Z,527.26
2023-03-06T00:27:11.052Z,526.27
2023-03-06T00:28:11.056Z,526.69
2023-03-06T00:29:11.055Z,525.88
2023-03-06T00:30:11.052Z,525.85
2023-03-06T00:31:11.074Z,525.72
2023-03-06T00:32:11.102Z,525.43
2023-03-06T00:33:11.057Z,524.51
2023-03-06T00:34:11.064Z,524.57
2023-03-06T00:35:11.061Z,524.64
2023-03-06T00:36:11.061Z,523.66
2023-03-06T00:37:11.071Z,523.33
2023-03-06T00:38:11.097Z,523.31
2023-03-06T00:39:11.063Z,522.9
2023-03-06T00:40:11.073Z,523.39
2023-03-06T00:41:11.065Z,524.11
2023-03-06T00:42:11.087Z,524.38
2023-03-06T00:43:11.095Z,523.55
2023-03-06T00:44:11.070Z,523.72
2023-03-06T00:45:11.135Z,523.69
2023-03-06T00:46:11.202Z,523.06
2023-03-06T00:47:11.085Z,523.51
2023-03-06T00:48:11.093Z,523.68
2023-03-06T00:49:11.094Z,522.72
2023-03-06T00:50:11.129Z,522.66
2023-03-06T00:51:13.839Z,522.69
2023-03-06T00:52:11.082Z,522.54
2023-03-06T00:53:11.101Z,522.55
2023-03-06T00:54:11.122Z,521.96
2023-03-06T00:55:11.149Z,521.72
2023-03-06T00:56:11.090Z,521.55
2023-03-06T00:57:11.093Z,521.16
2023-03-06T00:58:11.096Z,520.54
2023-03-06T00:59:11.094Z,520.62
2023-03-06T01:00:11.102Z,520.96
2023-03-06T01:01:11.181Z,521.13
2023-03-06T01:02:11.142Z,520.32
2023-03-06T01:03:11.105Z,520.88
2023-03-06T01:04:11.101Z,520.68
2023-03-06T01:05:11.109Z,521.11
2023-03-06T01:06:11.113Z,520.83
2023-03-06T01:07:11.110Z,521.64
2023-03-06T01:08:11.112Z,521.99
2023-03-06T01:09:11.118Z,522.17
2023-03-06T01:10:11.139Z,522.08
2023-03-06T01:11:11.107Z,522.07
2023-03-06T01:12:11.113Z,522.44
2023-03-06T01:13:11.123Z,522.62
2023-03-06T01:14:11.171Z,522.38
2023-03-06T01:15:11.112Z,522.76
2023-03-06T01:16:11.145Z,523.17
2023-03-06T01:17:11.124Z,522.9
2023-03-06T01:18:11.118Z,523.32
2023-03-06T01:19:11.134Z,523.61
2023-03-06T01:20:11.120Z,523.62
2023-03-06T01:21:11.125Z,523.26
2023-03-06T01:22:11.125Z,522.87
2023-03-06T01:23:14.173Z,523.26
2023-03-06T01:24:11.134Z,522.48
2023-03-06T01:25:11.132Z,523.27
2023-03-06T01:26:11.171Z,522.35
2023-03-06T01:27:11.132Z,522.86
2023-03-06T01:28:11.132Z,522.91
2023-03-06T01:29:11.186Z,522.88
2023-03-06T01:30:11.157Z,522.82
2023-03-06T01:31:11.147Z,522.8
2023-03-06T01:32:11.177Z,522.51
2023-03-06T01:33:11.149Z,523.12
2023-03-06T01:34:12.225Z,523.64
2023-03-06T01:35:11.148Z,523.69
2023-03-06T01:36:11.158Z,524.68
2023-03-06T01:37:11.148Z,523.41
2023-03-06T01:38:11.156Z,524.19
2023-03-06T01:39:11.191Z,525.04
2023-03-06T01:40:11.165Z,524.97
2023-03-06T01:41:11.164Z,525.51
2023-03-06T01:42:11.188Z,523.94
2023-03-06T01:43:11.170Z,524.87
2023-03-06T01:44:11.172Z,524.46
2023-03-06T01:45:13.926Z,524.49
2023-03-06T01:46:11.200Z,523.08
2023-03-06T01:47:11.173Z,522.65
2023-03-06T01:48:11.176Z,522.68
2023-03-06T01:49:11.189Z,522.02
2023-03-06T01:50:11.177Z,522.43
2023-03-06T01:51:11.176Z,522.03
2023-03-06T01:52:11.182Z,521.9
2023-03-06T01:53:11.184Z,521.62
2023-03-06T01:54:11.192Z,521.44
2023-03-06T01:55:11.183Z,521.02
2023-03-06T01:56:14.255Z,520.5
2023-03-06T01:57:11.186Z,519.58
2023-03-06T01:58:11.218Z,519.58
2023-03-06T01:59:11.206Z,519.27
2023-03-06T02:00:11.196Z,518.56
2023-03-06T02:01:11.225Z,517.48
2023-03-06T02:02:11.230Z,516.96
2023-03-06T02:03:11.195Z,516.1
2023-03-06T02:04:11.200Z,515.48
2023-03-06T02:05:11.218Z,514.97
2023-03-06T02:06:11.206Z,514.4
2023-03-06T02:07:14.082Z,513.58
2023-03-06T02:08:11.203Z,512.41
2023-03-06T02:09:11.213Z,510.64
2023-03-06T02:10:11.262Z,510.33
2023-03-06T02:11:11.244Z,509.68
2023-03-06T02:12:11.218Z,508.49
2023-03-06T02:13:11.219Z,507.34
2023-03-06T02:14:11.238Z,506.99
2023-03-06T02:15:11.382Z,506.11
2023-03-06T02:16:11.216Z,506.08
2023-03-06T02:17:11.222Z,505.91
2023-03-06T02:18:11.230Z,505.52
2023-03-06T02:19:11.221Z,505.63
2023-03-06T02:20:11.224Z,506.33
2023-03-06T02:21:11.234Z,506.08
2023-03-06T02:22:11.233Z,505.31
2023-03-06T02:23:11.234Z,505.7
2023-03-06T02:24:11.228Z,506.53
2023-03-06T02:25:11.244Z,506.1
2023-03-06T02:26:11.240Z,505.9
2023-03-06T02:27:11.241Z,505.59
2023-03-06T02:28:11.238Z,506.59
2023-03-06T02:29:11.250Z,506.64
2023-03-06T02:30:11.263Z,506.17
2023-03-06T02:31:11.295Z,506.56
2023-03-06T02:32:11.280Z,506.51
2023-03-06T02:33:11.252Z,506.57
2023-03-06T02:34:11.247Z,506.26
2023-03-06T02:35:11.259Z,506.1
2023-03-06T02:36:11.253Z,505.56
2023-03-06T02:37:11.249Z,504.93
2023-03-06T02:38:11.261Z,504.29
2023-03-06T02:39:11.261Z,503.72
2023-03-06T02:40:11.253Z,503.17
2023-03-06T02:41:11.268Z,503.67
2023-03-06T02:42:11.268Z,503.26
2023-03-06T02:43:11.263Z,502.82
2023-03-06T02:44:11.267Z,502.77
2023-03-06T02:45:11.323Z,503.46
2023-03-06T02:46:11.354Z,503.31
2023-03-06T02:47:11.265Z,503.24
2023-03-06T02:48:11.266Z,504.03
2023-03-06T02:49:11.286Z,503.47
2023-03-06T02:50:11.269Z,503.72
2023-03-06T02:51:11.268Z,503.87
2023-03-06T02:52:11.286Z,503.03
2023-03-06T02:53:11.273Z,503.46
2023-03-06T02:54:11.271Z,503.06
2023-03-06T02:55:11.281Z,503.06
2023-03-06T02:56:11.280Z,503.12
2023-03-06T02:57:11.282Z,503.62
2023-03-06T02:58:11.285Z,503.02
2023-03-06T02:59:11.287Z,503.18
2023-03-06T03:00:11.286Z,503.42
2023-03-06T03:01:11.335Z,503.42
2023-03-06T03:02:11.313Z,502.33
2023-03-06T03:03:11.285Z,502.36
2023-03-06T03:04:11.309Z,502.39
2023-03-06T03:05:11.288Z,501.16
2023-03-06T03:06:11.289Z,500.88
2023-03-06T03:07:11.297Z,500.69
2023-03-06T03:08:11.299Z,500.27
2023-03-06T03:09:11.293Z,501.14
2023-03-06T03:10:11.300Z,499.69
2023-03-06T03:11:11.297Z,499.22
2023-03-06T03:12:11.304Z,499.22
2023-03-06T03:13:11.304Z,499.64
2023-03-06T03:14:11.311Z,497.55
2023-03-06T03:15:11.312Z,497.61
2023-03-06T03:16:11.369Z,496.87
2023-03-06T03:17:11.315Z,496.73
2023-03-06T03:18:11.330Z,495.86
2023-03-06T03:19:11.311Z,496.3
2023-03-06T03:20:11.321Z,496.34
2023-03-06T03:21:11.321Z,496.67
2023-03-06T03:22:11.321Z,495.84
2023-03-06T03:23:11.317Z,495.63
2023-03-06T03:24:11.325Z,495.6
2023-03-06T03:25:11.328Z,495.24
2023-03-06T03:26:11.338Z,495.38
2023-03-06T03:27:14.063Z,494.61
2023-03-06T03:28:11.332Z,494.79
2023-03-06T03:29:11.337Z,493.96
2023-03-06T03:30:11.336Z,494.77
2023-03-06T03:31:11.381Z,494.95
2023-03-06T03:32:11.357Z,494.61
2023-03-06T03:34:11.370Z,494.08
2023-03-06T03:35:11.347Z,493.91
2023-03-06T03:36:11.347Z,494.03
2023-03-06T03:37:11.354Z,493.62
2023-03-06T03:38:11.355Z,493.57
2023-03-06T03:39:11.350Z,493.19
2023-03-06T03:40:11.358Z,492.03
2023-03-06T03:41:11.348Z,492.24
2023-03-06T03:42:11.353Z,492
2023-03-06T03:43:11.360Z,492.63
2023-03-06T03:44:11.360Z,492.45
2023-03-06T03:45:11.363Z,492.03
2023-03-06T03:46:11.404Z,492.12
2023-03-06T03:47:11.363Z,492.11
2023-03-06T03:48:11.368Z,491.52
2023-03-06T03:49:11.362Z,491.88
2023-03-06T03:50:14.141Z,491.49
2023-03-06T03:51:11.363Z,490.67
2023-03-06T03:52:11.366Z,490.67
2023-03-06T03:53:11.377Z,490.46
2023-03-06T03:54:11.372Z,490.27
2023-03-06T03:55:11.380Z,489.03
2023-03-06T03:56:11.372Z,488.79
2023-03-06T03:57:11.371Z,489.61
2023-03-06T03:58:11.380Z,488.59
2023-03-06T03:59:11.375Z,488.96
2023-03-06T04:00:11.376Z,488.4
2023-03-06T04:01:14.525Z,488.74
2023-03-06T04:02:11.424Z,487.89
2023-03-06T04:03:11.381Z,488.36
2023-03-06T04:04:11.385Z,488.28
2023-03-06T04:05:11.397Z,488
2023-03-06T04:06:11.414Z,488.6
2023-03-06T04:07:11.391Z,488.05
2023-03-06T04:08:11.396Z,488.36
2023-03-06T04:09:11.396Z,488.17
2023-03-06T04:10:11.405Z,488.32
2023-03-06T04:11:11.395Z,488.48
2023-03-06T04:12:14.190Z,489.29
2023-03-06T04:13:11.414Z,488.47
2023-03-06T04:14:11.403Z,488.66
2023-03-06T04:15:11.561Z,488.63
2023-03-06T04:16:11.443Z,488.43
2023-03-06T04:17:11.411Z,488.48
2023-03-06T04:18:11.410Z,488.02
2023-03-06T04:19:11.412Z,487.59
2023-03-06T04:20:11.418Z,487.56
2023-03-06T04:21:11.409Z,487.36
2023-03-06T04:22:11.470Z,487.76
2023-03-06T04:23:14.445Z,487.95
2023-03-06T04:24:11.415Z,487.55
2023-03-06T04:25:11.426Z,487.39
2023-03-06T04:26:11.421Z,487.62
2023-03-06T04:27:11.429Z,486.82
2023-03-06T04:28:11.428Z,486.8
2023-03-06T04:29:11.430Z,486.01
2023-03-06T04:30:11.427Z,484.98
2023-03-06T04:31:11.474Z,484.41
2023-03-06T04:32:11.445Z,483.43
2023-03-06T04:33:11.430Z,481.99
2023-03-06T04:34:11.432Z,480.41
2023-03-06T04:35:11.441Z,479.12
2023-03-06T04:36:11.441Z,477.97
2023-03-06T04:37:11.439Z,476.68
2023-03-06T04:38:11.479Z,476.47
2023-03-06T04:39:11.461Z,474.27
2023-03-06T04:40:11.447Z,473.21
2023-03-06T04:41:11.450Z,473.02
2023-03-06T04:42:11.459Z,472.97
2023-03-06T04:43:11.448Z,473.75
2023-03-06T04:44:11.451Z,473.8
2023-03-06T04:45:11.456Z,473.75
2023-03-06T04:46:11.450Z,473.35
2023-03-06T04:47:11.458Z,474.74
2023-03-06T04:48:11.456Z,475.32
2023-03-06T04:49:11.463Z,476.17
2023-03-06T04:50:11.464Z,476.32
2023-03-06T04:51:11.475Z,476.59
2023-03-06T04:52:11.465Z,477.01
2023-03-06T04:53:11.477Z,477.83
2023-03-06T04:54:11.514Z,478.26
2023-03-06T04:55:11.470Z,479.02
2023-03-06T04:56:11.472Z,479.99
2023-03-06T04:57:11.473Z,480.23
2023-03-06T04:58:11.482Z,480.49
2023-03-06T04:59:11.496Z,480.94
2023-03-06T05:00:11.473Z,481.37
2023-03-06T05:01:11.518Z,481.86
2023-03-06T05:02:11.487Z,481.52
2023-03-06T05:03:11.483Z,481.29
2023-03-06T05:04:11.505Z,481.47
2023-03-06T05:05:11.486Z,480.96
2023-03-06T05:06:14.248Z,480.75
2023-03-06T05:07:11.497Z,481.82
2023-03-06T05:08:11.489Z,481.7
2023-03-06T05:09:11.523Z,482.29
2023-03-06T05:10:11.511Z,481.23
2023-03-06T05:11:11.503Z,481.48
2023-03-06T05:12:11.519Z,482.03
2023-03-06T05:13:11.494Z,482.44
2023-03-06T05:14:11.534Z,484.02
2023-03-06T05:15:11.510Z,484.18
2023-03-06T05:16:11.554Z,484.61
2023-03-06T05:17:11.502Z,484.84
2023-03-06T05:18:11.503Z,485.19
2023-03-06T05:19:11.529Z,485.61
2023-03-06T05:20:11.513Z,485.85
2023-03-06T05:21:11.508Z,485.69
2023-03-06T05:22:11.502Z,485.85
2023-03-06T05:23:11.508Z,485.43
2023-03-06T05:24:11.533Z,485.75
2023-03-06T05:25:11.522Z,486.22
2023-03-06T05:26:11.573Z,485.82
2023-03-06T05:27:11.517Z,485.18
2023-03-06T05:28:11.520Z,485.73
2023-03-06T05:29:11.542Z,486.05
2023-03-06T05:30:11.517Z,485.96
2023-03-06T05:31:11.522Z,486.39
2023-03-06T05:32:11.655Z,486.75
2023-03-06T05:33:11.524Z,486.79
2023-03-06T05:34:11.555Z,487.07
2023-03-06T05:35:11.529Z,487.47
2023-03-06T05:36:11.533Z,487.41
2023-03-06T05:37:11.525Z,488.61
2023-03-06T05:38:11.535Z,489.23
2023-03-06T05:39:11.564Z,489.41
2023-03-06T05:40:11.534Z,490.2
2023-03-06T05:41:11.541Z,490.29
2023-03-06T05:42:11.559Z,490.73
2023-03-06T05:43:11.548Z,490.8
2023-03-06T05:44:11.570Z,491.29
2023-03-06T05:45:11.544Z,491.05
2023-03-06T05:46:11.634Z,491.05
2023-03-06T05:47:11.552Z,490.91
2023-03-06T05:48:11.554Z,489.85
2023-03-06T05:49:11.580Z,490.01
2023-03-06T05:50:11.550Z,489.62
2023-03-06T05:51:11.560Z,489.43
2023-03-06T05:52:11.585Z,489.66
2023-03-06T05:53:11.567Z,489.27
2023-03-06T05:54:11.581Z,489.4
2023-03-06T05:55:11.560Z,489.82
2023-03-06T05:56:11.607Z,489.58
2023-03-06T05:57:11.569Z,489.8
2023-03-06T05:58:11.589Z,489.37
2023-03-06T05:59:11.585Z,490.06
2023-03-06T06:00:11.576Z,489.17
2023-03-06T06:01:11.586Z,488.64
2023-03-06T06:02:11.605Z,488.21
2023-03-06T06:03:11.593Z,487.93
2023-03-06T06:04:11.600Z,487.87
2023-03-06T06:05:13.045Z,486.98
2023-03-06T06:06:11.601Z,487.19
2023-03-06T06:07:11.577Z,487.59
2023-03-06T06:08:11.581Z,488.19
2023-03-06T06:09:13.819Z,486.72
2023-03-06T06:10:11.583Z,487.53
2023-03-06T06:11:11.586Z,488.38
2023-03-06T06:12:11.592Z,487.67
2023-03-06T06:13:11.595Z,487.5
2023-03-06T06:14:11.639Z,486.53
2023-03-06T06:15:11.616Z,486.72
2023-03-06T06:16:11.746Z,485.91
2023-03-06T06:17:14.856Z,485.13
2023-03-06T06:18:11.612Z,484.19
2023-03-06T06:19:11.622Z,483.37
2023-03-06T06:20:11.605Z,482.39
2023-03-06T06:21:11.615Z,480.94
2023-03-06T06:22:11.605Z,480.81
2023-03-06T06:23:11.608Z,480.16
2023-03-06T06:24:11.629Z,479.57
2023-03-06T06:25:11.603Z,479.73
2023-03-06T06:26:11.611Z,479.4
2023-03-06T06:27:11.625Z,479.51
2023-03-06T06:28:14.621Z,478.59
2023-03-06T06:29:11.635Z,478.11
2023-03-06T06:30:11.645Z,477.88
2023-03-06T06:31:11.735Z,478.18
2023-03-06T06:32:11.665Z,479.08
2023-03-06T06:33:11.622Z,479.44
2023-03-06T06:34:11.650Z,479.44
2023-03-06T06:35:11.628Z,480.09
2023-03-06T06:36:11.626Z,481.27
2023-03-06T06:37:11.773Z,482.33
2023-03-06T06:38:11.623Z,483.29
2023-03-06T06:39:14.844Z,484.9
2023-03-06T06:40:11.631Z,486.4
2023-03-06T06:41:35.907Z,488.24
2023-03-06T06:42:40.910Z,491.02
2023-03-06T06:43:40.884Z,493.94
2023-03-06T06:44:41.006Z,494.55
2023-03-06T06:45:40.919Z,497.29
2023-03-06T06:47:40.952Z,500.97
2023-03-06T06:48:40.902Z,502.8
2023-03-06T06:49:40.939Z,505.21
2023-03-06T06:50:40.896Z,506.93
2023-03-06T06:51:41.034Z,508.31
2023-03-06T06:52:40.909Z,510.05
2023-03-06T06:53:40.900Z,511.61
2023-03-06T06:54:40.939Z,512.61
2023-03-06T06:55:40.911Z,513.39
2023-03-06T06:56:40.905Z,513.85
2023-03-06T06:57:40.947Z,514.63
2023-03-06T06:58:40.915Z,515.78
2023-03-06T06:59:40.967Z,515.95
2023-03-06T07:00:40.911Z,516.71
2023-03-06T07:01:40.945Z,517.14
2023-03-06T07:02:40.991Z,517.9
2023-03-06T07:03:40.960Z,518.88
2023-03-06T07:04:49.207Z,519.84
2023-03-06T07:05:40.926Z,520.66
2023-03-06T07:06:40.922Z,521.66
2023-03-06T07:07:40.956Z,522.21
2023-03-06T07:08:40.939Z,523.52
2023-03-06T07:09:40.962Z,524.29
2023-03-06T07:10:40.937Z,526.21
2023-03-06T07:11:40.974Z,526.72
2023-03-06T07:12:40.940Z,528.69
2023-03-06T07:13:40.937Z,529.51
2023-03-06T07:14:40.977Z,530.68
2023-03-06T07:15:40.963Z,531.02
2023-03-06T07:16:40.943Z,531.18
2023-03-06T07:17:40.975Z,532.2
2023-03-06T07:18:40.944Z,532.74
2023-03-06T07:19:41.857Z,532.57
2023-03-06T07:20:40.953Z,532.78
2023-03-06T07:21:40.952Z,534.1
2023-03-06T07:22:50.187Z,534.72
2023-03-06T07:23:40.957Z,535.4
2023-03-06T07:24:40.961Z,535.44
2023-03-06T07:25:40.971Z,536.22
2023-03-06T07:26:40.961Z,537.21
2023-03-06T07:27:40.962Z,538.33
2023-03-06T07:28:51.825Z,537.97
2023-03-06T07:29:40.963Z,538.88
2023-03-06T07:30:42.052Z,538.66
2023-03-06T07:31:40.970Z,539.56
2023-03-06T07:32:41.032Z,540.57
2023-03-06T07:33:40.998Z,541.13
2023-03-06T07:34:40.965Z,542.79
2023-03-06T07:35:41.082Z,543.48
2023-03-06T07:36:40.979Z,543.01
2023-03-06T07:37:40.981Z,542.78
2023-03-06T07:38:40.977Z,543.19
2023-03-06T07:39:40.976Z,544.17
2023-03-06T07:40:40.979Z,545.3
2023-03-06T07:41:44.008Z,546.66
2023-03-06T07:42:40.980Z,548
2023-03-06T07:43:40.989Z,549.44
2023-03-06T07:44:41.017Z,550.97
2023-03-06T07:45:40.992Z,552.09
2023-03-06T07:46:41.219Z,552.53
2023-03-06T07:47:41.004Z,553.61
2023-03-06T07:48:40.994Z,553.61
2023-03-06T07:49:41.020Z,552.5
2023-03-06T07:50:40.998Z,552.53
2023-03-06T07:51:41.001Z,551.88
2023-03-06T07:52:43.876Z,551.99
2023-03-06T07:53:41.005Z,552.95
2023-03-06T07:54:41.012Z,553.48
2023-03-06T07:55:41.014Z,554.02
2023-03-06T07:56:41.006Z,554.42
2023-03-06T07:57:41.019Z,556.86
2023-03-06T07:58:41.031Z,558.93
2023-03-06T07:59:41.011Z,561.01
2023-03-06T08:00:41.029Z,563.06
2023-03-06T08:01:41.015Z,565.66
2023-03-06T08:02:41.060Z,567.32
2023-03-06T08:03:43.841Z,569.04
2023-03-06T08:04:41.030Z,571.62
2023-03-06T08:05:41.052Z,573.29
2023-03-06T08:06:41.032Z,575.69
2023-03-06T08:07:41.029Z,578.33
2023-03-06T08:08:41.043Z,580.64
2023-03-06T08:09:41.032Z,583.39
2023-03-06T08:10:41.039Z,584.78
2023-03-06T08:11:41.037Z,586.08
2023-03-06T08:12:41.034Z,586.64
2023-03-06T08:13:41.041Z,587.16
2023-03-06T08:14:49.822Z,588.3
2023-03-06T08:15:41.030Z,589.14
2023-03-06T08:16:41.097Z,591.33
2023-03-06T08:17:41.042Z,593.02
2023-03-06T08:18:41.042Z,594.84
2023-03-06T08:19:41.036Z,596.62
2023-03-06T08:20:41.066Z,598.81
2023-03-06T08:21:41.080Z,601.56
2023-03-06T08:22:41.052Z,604.81
2023-03-06T08:23:41.073Z,607.67
2023-03-06T08:24:41.047Z,609.78
2023-03-06T08:25:41.071Z,611.66
2023-03-06T08:26:41.054Z,613.76
2023-03-06T08:27:41.050Z,615.56
2023-03-06T08:28:41.057Z,616.28
2023-03-06T08:29:41.062Z,618.41
2023-03-06T08:30:41.074Z,619.51
2023-03-06T08:31:41.147Z,619.46
2023-03-06T08:32:41.109Z,621.06
2023-03-06T08:33:41.075Z,622.66
2023-03-06T08:34:41.075Z,624.78
2023-03-06T08:35:41.098Z,626.88
2023-03-06T08:36:41.070Z,629.52
2023-03-06T08:37:41.142Z,630.97
2023-03-06T08:38:41.082Z,632.21
2023-03-06T08:39:41.078Z,632.25
2023-03-06T08:40:41.097Z,633.57
2023-03-06T08:41:41.075Z,634.8
2023-03-06T08:42:41.079Z,636.9
2023-03-06T08:43:41.081Z,639.15
2023-03-06T08:44:41.082Z,641.91
2023-03-06T08:45:41.213Z,644.42
2023-03-06T08:46:41.082Z,646.77
2023-03-06T08:47:41.124Z,649.87
2023-03-06T08:48:41.089Z,652.22
2023-03-06T08:49:41.081Z,654.85
2023-03-06T08:50:41.111Z,656.49
2023-03-06T08:51:41.093Z,658.1
2023-03-06T08:52:41.086Z,659.68
2023-03-06T08:53:43.389Z,659.51
2023-03-06T08:54:41.099Z,659.8
2023-03-06T08:55:41.111Z,660.35
2023-03-06T08:56:41.114Z,661.31
2023-03-06T08:57:41.093Z,661.99
2023-03-06T08:58:41.100Z,663.33
2023-03-06T08:59:41.102Z,664.39
2023-03-06T09:00:41.132Z,665.39
2023-03-06T09:01:41.127Z,668.53
2023-03-06T09:02:41.167Z,670.14
2023-03-06T09:03:41.106Z,670.68
2023-03-06T09:04:41.112Z,671.67
2023-03-06T09:05:41.140Z,672.81
2023-03-06T09:06:41.114Z,675.92
2023-03-06T09:07:41.117Z,677.63
2023-03-06T09:08:41.114Z,678.58
2023-03-06T09:09:41.131Z,678.46
2023-03-06T09:10:41.160Z,678.39
2023-03-06T09:11:41.120Z,678.38
2023-03-06T09:12:50.079Z,678.72
2023-03-06T09:13:41.116Z,678.61
2023-03-06T09:14:41.120Z,678.27
2023-03-06T09:15:41.149Z,677.16
2023-03-06T09:16:41.183Z,677.6
2023-03-06T09:17:41.199Z,676.74
2023-03-06T09:18:41.131Z,676.02
2023-03-06T09:19:41.141Z,675.57
2023-03-06T09:20:41.163Z,676.74
2023-03-06T09:21:41.139Z,677.91
2023-03-06T09:22:41.137Z,679.64
2023-03-06T09:23:41.142Z,682.14
2023-03-06T09:24:41.147Z,684.45
2023-03-06T09:25:41.208Z,686.75
2023-03-06T09:26:45.834Z,687.75
2023-03-06T09:27:41.156Z,688.58
2023-03-06T09:28:41.152Z,689.19
2023-03-06T09:29:41.152Z,689.6
2023-03-06T09:30:41.240Z,690.11
2023-03-06T09:31:41.159Z,690.08
2023-03-06T09:32:41.169Z,689.87
2023-03-06T09:33:41.170Z,690.14
2023-03-06T09:34:41.152Z,690.5
2023-03-06T09:35:41.203Z,691.25
2023-03-06T09:36:55.240Z,692.94
2023-03-06T09:37:41.156Z,696.72
2023-03-06T09:38:41.165Z,700.44
2023-03-06T09:39:41.169Z,704.47
2023-03-06T09:40:41.189Z,709.84
2023-03-06T09:41:41.188Z,715.63
2023-03-06T09:42:41.179Z,721.11
2023-03-06T09:43:41.165Z,724.99
2023-03-06T09:44:41.164Z,728.8
2023-03-06T09:45:41.227Z,733.02
2023-03-06T09:46:44.245Z,736.98
2023-03-06T09:47:41.168Z,740.9
2023-03-06T09:48:41.167Z,744.73
2023-03-06T09:49:41.172Z,747.36
2023-03-06T09:50:41.197Z,748.87
2023-03-06T09:51:41.178Z,750.85
2023-03-06T09:52:41.177Z,752.99
2023-03-06T09:53:41.201Z,754.89
2023-03-06T09:54:41.178Z,757.55
2023-03-06T09:55:41.200Z,760.03
2023-03-06T09:56:41.183Z,760.26
2023-03-06T09:57:44.124Z,759.51
2023-03-06T09:58:41.181Z,756.13
2023-03-06T09:59:41.180Z,753.92
2023-03-06T10:00:41.207Z,751.38
2023-03-06T10:01:41.182Z,748.82
2023-03-06T10:02:41.324Z,745.09
2023-03-06T10:03:41.270Z,740.92
2023-03-06T10:04:41.334Z,737.74
2023-03-06T10:05:41.213Z,734.41
2023-03-06T10:06:41.185Z,730.93
2023-03-06T10:07:41.185Z,725.78
2023-03-06T10:08:44.267Z,720.5
2023-03-06T10:09:41.200Z,715.41
2023-03-06T10:10:41.212Z,710.81
2023-03-06T10:11:41.202Z,707.11
2023-03-06T10:12:41.199Z,704.37
2023-03-06T10:13:41.239Z,703.2
2023-03-06T10:14:41.195Z,702.08
2023-03-06T10:15:41.281Z,700.42
2023-03-06T10:16:41.212Z,700.01
2023-03-06T10:17:41.212Z,700.48
2023-03-06T10:18:41.202Z,700.94
2023-03-06T10:19:44.226Z,702.24
2023-03-06T10:20:41.238Z,703.75
2023-03-06T10:21:41.213Z,705.98
2023-03-06T10:22:41.214Z,707.09
2023-03-06T10:23:41.220Z,707.91
2023-03-06T10:24:41.220Z,707.8
2023-03-06T10:25:41.246Z,707.97
2023-03-06T10:26:41.366Z,708.01
2023-03-06T10:27:41.218Z,707.28
2023-03-06T10:28:41.219Z,706.45
2023-03-06T10:29:43.601Z,707.83
2023-03-06T10:30:44.996Z,707.49
2023-03-06T10:31:41.229Z,706.76
2023-03-06T10:32:48.539Z,704.72
2023-03-06T10:33:42.252Z,703.25
2023-03-06T10:34:41.232Z,702.42
2023-03-06T10:35:41.271Z,701.77
2023-03-06T10:36:41.234Z,701.09
2023-03-06T10:37:41.237Z,700.39
2023-03-06T10:38:41.315Z,701.45
2023-03-06T10:39:41.238Z,701.76
2023-03-06T10:40:41.239Z,702.97
2023-03-06T10:41:41.245Z,703.31
2023-03-06T10:42:41.245Z,703.9
2023-03-06T10:43:41.247Z,703.54
2023-03-06T10:44:41.238Z,702.74
2023-03-06T10:45:48.824Z,702.28
2023-03-06T10:46:41.301Z,702.37
2023-03-06T10:47:41.244Z,700.57
2023-03-06T10:48:42.659Z,700.64
2023-03-06T10:49:41.250Z,699.78
2023-03-06T10:50:41.261Z,700.49
2023-03-06T10:51:41.281Z,700
2023-03-06T10:52:41.257Z,700.32
2023-03-06T10:53:41.255Z,700.97
2023-03-06T10:54:41.250Z,700.77
2023-03-06T10:55:41.277Z,700.32
2023-03-06T10:56:41.274Z,699.96
2023-03-06T10:57:41.284Z,699.79
2023-03-06T10:58:41.254Z,698.67
2023-03-06T10:59:41.306Z,696.67
2023-03-06T11:00:41.259Z,695.39
2023-03-06T11:01:41.425Z,694.73
2023-03-06T11:02:41.334Z,695.09
2023-03-06T11:03:41.258Z,696.5
2023-03-06T11:04:41.327Z,698.99
2023-03-06T11:05:41.270Z,700
2023-03-06T11:06:41.290Z,701.21
2023-03-06T11:07:41.267Z,701.51
2023-03-06T11:08:41.284Z,701.51
2023-03-06T11:09:41.272Z,701.55
2023-03-06T11:10:41.275Z,701.56
2023-03-06T11:11:41.307Z,700.45
2023-03-06T11:12:41.286Z,700.26
2023-03-06T11:13:41.300Z,702.01
2023-03-06T11:14:41.271Z,703.76
2023-03-06T11:15:41.353Z,705.53
2023-03-06T11:16:41.308Z,707.45
2023-03-06T11:17:41.369Z,708.89
2023-03-06T11:18:41.294Z,710.29
2023-03-06T11:19:41.282Z,711.43
2023-03-06T11:20:50.796Z,712.75
2023-03-06T11:21:41.311Z,713.8
2023-03-06T11:22:41.354Z,714.03
2023-03-06T11:23:41.285Z,715.3
2023-03-06T11:24:41.289Z,715.76
2023-03-06T11:25:41.292Z,716.46
2023-03-06T11:26:41.316Z,717.35
2023-03-06T11:27:41.310Z,717.49
2023-03-06T11:28:41.290Z,718.34
2023-03-06T11:29:41.329Z,718.16
2023-03-06T11:30:41.301Z,717.95
2023-03-06T11:31:41.387Z,717.89
2023-03-06T11:32:41.374Z,717.13
2023-03-06T11:33:41.326Z,716.78
2023-03-06T11:34:41.306Z,717.23
2023-03-06T11:35:41.331Z,718.14
2023-03-06T11:36:41.334Z,718.02
2023-03-06T11:37:41.297Z,718.99
2023-03-06T11:38:41.297Z,719.24
2023-03-06T11:39:41.304Z,721.02
2023-03-06T11:40:41.305Z,722.29
2023-03-06T11:41:41.327Z,723.52
2023-03-06T11:42:41.317Z,725.57
2023-03-06T11:43:41.307Z,727.11
2023-03-06T11:44:41.310Z,728.38
2023-03-06T11:45:41.316Z,730.54
2023-03-06T11:46:41.358Z,733.39
2023-03-06T11:47:41.335Z,735
2023-03-06T11:48:41.313Z,735.24
2023-03-06T11:49:44.095Z,735.8
2023-03-06T11:50:41.320Z,735.83
2023-03-06T11:51:41.377Z,736.06
2023-03-06T11:52:41.331Z,734.47
2023-03-06T11:53:41.771Z,734.06
2023-03-06T11:54:41.323Z,735.71
2023-03-06T11:55:41.358Z,737.38
2023-03-06T11:56:41.386Z,738.37
2023-03-06T11:57:41.325Z,737.78
2023-03-06T11:58:41.340Z,738.88
2023-03-06T11:59:41.323Z,738
2023-03-06T12:00:41.322Z,739.14
2023-03-06T12:01:41.351Z,740.3
2023-03-06T12:02:41.335Z,742
2023-03-06T12:03:41.325Z,743.24
2023-03-06T12:04:41.341Z,743.89
2023-03-06T12:05:41.462Z,743.15
2023-03-06T12:06:41.358Z,742.14
2023-03-06T12:07:41.337Z,742.3
2023-03-06T12:08:41.342Z,744.39
2023-03-06T12:09:41.334Z,746.86
2023-03-06T12:10:41.343Z,747.41
2023-03-06T12:11:41.366Z,749.63
2023-03-06T12:12:41.344Z,750.7
2023-03-06T12:13:44.427Z,751.12
2023-03-06T12:14:41.339Z,751.65
2023-03-06T12:15:41.352Z,752.65
2023-03-06T12:16:41.397Z,754.35
2023-03-06T12:17:41.367Z,755.43
2023-03-06T12:18:41.366Z,756.39
2023-03-06T12:19:41.350Z,758.69
2023-03-06T12:20:41.348Z,761.69
2023-03-06T12:21:41.403Z,763.61
2023-03-06T12:22:41.358Z,764.8
2023-03-06T12:23:41.381Z,767.98
2023-03-06T12:24:44.368Z,769.92
2023-03-06T12:25:41.350Z,771.25
2023-03-06T12:26:41.374Z,773.29
2023-03-06T12:27:41.354Z,774.86
2023-03-06T12:28:41.363Z,776.26
2023-03-06T12:29:41.367Z,776.64
2023-03-06T12:30:41.368Z,776.97
2023-03-06T12:31:41.411Z,777.45
2023-03-06T12:32:41.431Z,776.66
2023-03-06T12:33:41.373Z,775.45